sensor_id;sensor_type;location;lat;lon;timestamp;temperature;humidity
25652;DHT22;13508;50.734;4.232;2024-02-04T00:01:18;10.50;99.90
25652;DHT22;13508;50.734;4.232;2024-02-04T00:04:24;10.60;99.90
25652;DHT22;13508;50.734;4.232;2024-02-04T00:07:28;10.60;99.90
25652;DHT22;13508;50.734;4.232;2024-02-04T00:10:33;10.60;99.90
25652;DHT22;13508;50.734;4.232;2024-02-04T00:13:38;10.60;99.90
25652;DHT22;13508;50.734;4.232;2024-02-04T00:16:41;10.60;99.90
25652;DHT22;13508;50.734;4.232;2024-02-04T00:19:45;10.60;99.90
25652;DHT22;13508;50.734;4.232;2024-02-04T00:22:50;10.60;99.90
25652;DHT22;13508;50.734;4.232;2024-02-04T00:25:54;10.60;99.90
25652;DHT22;13508;50.734;4.232;2024-02-04T00:28:59;10.60;99.90
25652;DHT22;13508;50.734;4.232;2024-02-04T00:32:03;10.60;99.90
25652;DHT22;13508;50.734;4.232;2024-02-04T00:35:07;10.70;99.90
25652;DHT22;13508;50.734;4.232;2024-02-04T00:38:10;10.70;99.90
25652;DHT22;13508;50.734;4.232;2024-02-04T00:41:14;10.60;99.90
25652;DHT22;13508;50.734;4.232;2024-02-04T00:44:17;10.70;99.90
25652;DHT22;13508;50.734;4.232;2024-02-04T00:47:23;10.60;99.90
25652;DHT22;13508;50.734;4.232;2024-02-04T00:50:26;10.60;99.90
25652;DHT22;13508;50.734;4.232;2024-02-04T00:53:32;10.60;99.90
25652;DHT22;13508;50.734;4.232;2024-02-04T00:56:38;10.60;99.90
25652;DHT22;13508;50.734;4.232;2024-02-04T00:59:43;10.60;99.90
25652;DHT22;13508;50.734;4.232;2024-02-04T01:02:47;10.50;99.90
25652;DHT22;13508;50.734;4.232;2024-02-04T01:05:53;10.60;99.90
25652;DHT22;13508;50.734;4.232;2024-02-04T01:08:58;10.50;99.90
25652;DHT22;13508;50.734;4.232;2024-02-04T01:12:03;10.50;99.90
25652;DHT22;13508;50.734;4.232;2024-02-04T01:15:09;10.60;99.90
25652;DHT22;13508;50.734;4.232;2024-02-04T01:18:12;10.50;99.90
25652;DHT22;13508;50.734;4.232;2024-02-04T01:21:17;10.50;99.90
25652;DHT22;13508;50.734;4.232;2024-02-04T01:24:21;10.60;99.90
25652;DHT22;13508;50.734;4.232;2024-02-04T01:27:25;10.50;99.90
25652;DHT22;13508;50.734;4.232;2024-02-04T01:30:28;10.50;99.90
25652;DHT22;13508;50.734;4.232;2024-02-04T01:33:33;10.50;99.90
25652;DHT22;13508;50.734;4.232;2024-02-04T01:36:39;10.50;99.90
25652;DHT22;13508;50.734;4.232;2024-02-04T01:39:43;10.50;99.90
25652;DHT22;13508;50.734;4.232;2024-02-04T01:42:46;10.50;99.90
25652;DHT22;13508;50.734;4.232;2024-02-04T01:45:50;10.50;99.90
25652;DHT22;13508;50.734;4.232;2024-02-04T01:48:55;10.50;99.90
25652;DHT22;13508;50.734;4.232;2024-02-04T01:51:59;10.40;99.90
25652;DHT22;13508;50.734;4.232;2024-02-04T01:55:03;10.40;99.90
25652;DHT22;13508;50.734;4.232;2024-02-04T01:58:08;10.50;99.90
25652;DHT22;13508;50.734;4.232;2024-02-04T02:01:12;10.50;99.90
25652;DHT22;13508;50.734;4.232;2024-02-04T02:04:18;10.40;99.90
25652;DHT22;13508;50.734;4.232;2024-02-04T02:07:22;10.50;99.90
25652;DHT22;13508;50.734;4.232;2024-02-04T02:10:27;10.50;99.90
25652;DHT22;13508;50.734;4.232;2024-02-04T02:13:32;10.50;99.90
25652;DHT22;13508;50.734;4.232;2024-02-04T02:16:39;10.50;99.90
25652;DHT22;13508;50.734;4.232;2024-02-04T02:19:57;10.40;99.90
25652;DHT22;13508;50.734;4.232;2024-02-04T02:23:14;10.40;99.90
25652;DHT22;13508;50.734;4.232;2024-02-04T02:26:23;10.40;99.90
25652;DHT22;13508;50.734;4.232;2024-02-04T02:29:26;10.40;99.90
25652;DHT22;13508;50.734;4.232;2024-02-04T02:32:30;10.40;99.90
25652;DHT22;13508;50.734;4.232;2024-02-04T02:35:35;10.40;99.90
25652;DHT22;13508;50.734;4.232;2024-02-04T02:38:59;10.50;99.90
25652;DHT22;13508;50.734;4.232;2024-02-04T02:42:04;10.50;99.90
25652;DHT22;13508;50.734;4.232;2024-02-04T02:45:09;10.50;99.90
25652;DHT22;13508;50.734;4.232;2024-02-04T02:48:14;10.50;99.90
25652;DHT22;13508;50.734;4.232;2024-02-04T02:51:17;10.50;99.90
25652;DHT22;13508;50.734;4.232;2024-02-04T02:54:23;10.50;99.90
25652;DHT22;13508;50.734;4.232;2024-02-04T02:57:26;10.50;99.90
25652;DHT22;13508;50.734;4.232;2024-02-04T03:00:30;10.50;99.90
25652;DHT22;13508;50.734;4.232;2024-02-04T03:03:33;10.50;99.90
25652;DHT22;13508;50.734;4.232;2024-02-04T03:06:37;10.50;99.90
25652;DHT22;13508;50.734;4.232;2024-02-04T03:09:40;10.60;99.90
25652;DHT22;13508;50.734;4.232;2024-02-04T03:12:43;10.60;99.90
25652;DHT22;13508;50.734;4.232;2024-02-04T03:15:47;10.60;99.90
25652;DHT22;13508;50.734;4.232;2024-02-04T03:18:52;10.50;99.90
25652;DHT22;13508;50.734;4.232;2024-02-04T03:21:56;10.50;99.90
25652;DHT22;13508;50.734;4.232;2024-02-04T03:24:59;10.60;99.90
25652;DHT22;13508;50.734;4.232;2024-02-04T03:28:03;10.50;99.90
25652;DHT22;13508;50.734;4.232;2024-02-04T03:31:07;10.50;99.90
25652;DHT22;13508;50.734;4.232;2024-02-04T03:34:10;10.50;99.90
25652;DHT22;13508;50.734;4.232;2024-02-04T03:37:14;10.60;99.90
25652;DHT22;13508;50.734;4.232;2024-02-04T03:40:17;10.60;99.90
25652;DHT22;13508;50.734;4.232;2024-02-04T03:43:22;10.50;99.90
25652;DHT22;13508;50.734;4.232;2024-02-04T03:46:26;10.50;99.90
25652;DHT22;13508;50.734;4.232;2024-02-04T03:49:32;10.50;99.90
25652;DHT22;13508;50.734;4.232;2024-02-04T03:52:35;10.50;99.90
25652;DHT22;13508;50.734;4.232;2024-02-04T03:55:38;10.50;99.90
25652;DHT22;13508;50.734;4.232;2024-02-04T03:58:42;10.50;99.90
25652;DHT22;13508;50.734;4.232;2024-02-04T04:01:49;10.50;99.90
25652;DHT22;13508;50.734;4.232;2024-02-04T04:05:00;10.50;99.90
25652;DHT22;13508;50.734;4.232;2024-02-04T04:08:04;10.50;99.90
25652;DHT22;13508;50.734;4.232;2024-02-04T04:11:09;10.50;99.90
25652;DHT22;13508;50.734;4.232;2024-02-04T04:14:12;10.50;99.90
25652;DHT22;13508;50.734;4.232;2024-02-04T04:17:18;10.60;99.90
25652;DHT22;13508;50.734;4.232;2024-02-04T04:20:21;10.50;99.90
25652;DHT22;13508;50.734;4.232;2024-02-04T04:23:24;10.50;99.90
25652;DHT22;13508;50.734;4.232;2024-02-04T04:26:28;10.50;99.90
25652;DHT22;13508;50.734;4.232;2024-02-04T04:29:31;10.50;99.90
25652;DHT22;13508;50.734;4.232;2024-02-04T04:32:35;10.50;99.90
25652;DHT22;13508;50.734;4.232;2024-02-04T04:35:38;10.50;99.90
25652;DHT22;13508;50.734;4.232;2024-02-04T04:38:42;10.50;99.90
25652;DHT22;13508;50.734;4.232;2024-02-04T04:41:45;10.50;99.90
25652;DHT22;13508;50.734;4.232;2024-02-04T04:44:48;10.50;99.90
25652;DHT22;13508;50.734;4.232;2024-02-04T04:47:52;10.40;99.90
25652;DHT22;13508;50.734;4.232;2024-02-04T04:50:55;10.40;99.90
25652;DHT22;13508;50.734;4.232;2024-02-04T04:53:58;10.30;99.90
25652;DHT22;13508;50.734;4.232;2024-02-04T04:57:02;10.40;99.90
25652;DHT22;13508;50.734;4.232;2024-02-04T05:00:06;10.30;99.90
25652;DHT22;13508;50.734;4.232;2024-02-04T05:03:12;10.40;99.90
25652;DHT22;13508;50.734;4.232;2024-02-04T05:06:15;10.40;99.90
25652;DHT22;13508;50.734;4.232;2024-02-04T05:09:21;10.40;99.90
25652;DHT22;13508;50.734;4.232;2024-02-04T05:12:24;10.40;99.90
25652;DHT22;13508;50.734;4.232;2024-02-04T05:15:27;10.40;99.90
25652;DHT22;13508;50.734;4.232;2024-02-04T05:18:35;10.40;99.90
25652;DHT22;13508;50.734;4.232;2024-02-04T05:21:39;10.40;99.90
25652;DHT22;13508;50.734;4.232;2024-02-04T05:24:43;10.40;99.90
25652;DHT22;13508;50.734;4.232;2024-02-04T05:27:47;10.50;99.90
25652;DHT22;13508;50.734;4.232;2024-02-04T05:30:50;10.40;99.90
25652;DHT22;13508;50.734;4.232;2024-02-04T05:33:55;10.40;99.90
25652;DHT22;13508;50.734;4.232;2024-02-04T05:37:01;10.40;99.90
25652;DHT22;13508;50.734;4.232;2024-02-04T05:40:05;10.40;99.90
25652;DHT22;13508;50.734;4.232;2024-02-04T05:43:09;10.40;99.90
25652;DHT22;13508;50.734;4.232;2024-02-04T05:46:15;10.40;99.90
25652;DHT22;13508;50.734;4.232;2024-02-04T05:49:21;10.40;99.90
25652;DHT22;13508;50.734;4.232;2024-02-04T05:52:25;10.40;99.90
25652;DHT22;13508;50.734;4.232;2024-02-04T05:55:28;10.40;99.90
25652;DHT22;13508;50.734;4.232;2024-02-04T05:58:33;10.40;99.90
25652;DHT22;13508;50.734;4.232;2024-02-04T06:01:40;10.40;99.90
25652;DHT22;13508;50.734;4.232;2024-02-04T06:04:43;10.40;99.90
25652;DHT22;13508;50.734;4.232;2024-02-04T06:07:49;10.40;99.90
25652;DHT22;13508;50.734;4.232;2024-02-04T06:10:52;10.40;99.90
25652;DHT22;13508;50.734;4.232;2024-02-04T06:13:56;10.40;99.90
25652;DHT22;13508;50.734;4.232;2024-02-04T06:17:02;10.40;99.90
25652;DHT22;13508;50.734;4.232;2024-02-04T06:20:05;10.40;99.90
25652;DHT22;13508;50.734;4.232;2024-02-04T06:23:09;10.50;99.90
25652;DHT22;13508;50.734;4.232;2024-02-04T06:26:12;10.40;99.90
25652;DHT22;13508;50.734;4.232;2024-02-04T06:29:15;10.40;99.90
25652;DHT22;13508;50.734;4.232;2024-02-04T06:32:18;10.40;99.90
25652;DHT22;13508;50.734;4.232;2024-02-04T06:35:24;10.40;99.90
25652;DHT22;13508;50.734;4.232;2024-02-04T06:38:28;10.40;99.90
25652;DHT22;13508;50.734;4.232;2024-02-04T06:41:31;10.30;99.90
25652;DHT22;13508;50.734;4.232;2024-02-04T06:44:41;10.40;99.90
25652;DHT22;13508;50.734;4.232;2024-02-04T06:47:45;10.40;99.90
25652;DHT22;13508;50.734;4.232;2024-02-04T06:50:50;10.40;99.90
25652;DHT22;13508;50.734;4.232;2024-02-04T06:53:54;10.40;99.90
25652;DHT22;13508;50.734;4.232;2024-02-04T06:56:58;10.30;99.90
25652;DHT22;13508;50.734;4.232;2024-02-04T07:00:02;10.40;99.90
25652;DHT22;13508;50.734;4.232;2024-02-04T07:03:11;10.40;99.90
25652;DHT22;13508;50.734;4.232;2024-02-04T07:06:14;10.40;99.90
25652;DHT22;13508;50.734;4.232;2024-02-04T07:09:17;10.40;99.90
25652;DHT22;13508;50.734;4.232;2024-02-04T07:12:20;10.40;99.90
25652;DHT22;13508;50.734;4.232;2024-02-04T07:15:24;10.40;99.90
25652;DHT22;13508;50.734;4.232;2024-02-04T07:18:28;10.50;99.90
25652;DHT22;13508;50.734;4.232;2024-02-04T07:21:34;10.50;99.90
25652;DHT22;13508;50.734;4.232;2024-02-04T07:24:37;10.50;99.90
25652;DHT22;13508;50.734;4.232;2024-02-04T07:27:41;10.50;99.90
25652;DHT22;13508;50.734;4.232;2024-02-04T07:30:44;10.50;99.90
25652;DHT22;13508;50.734;4.232;2024-02-04T07:33:47;10.50;99.90
25652;DHT22;13508;50.734;4.232;2024-02-04T07:36:51;10.50;99.90
25652;DHT22;13508;50.734;4.232;2024-02-04T07:39:55;10.60;99.90
25652;DHT22;13508;50.734;4.232;2024-02-04T07:43:01;10.50;99.90
25652;DHT22;13508;50.734;4.232;2024-02-04T07:46:05;10.50;99.90
25652;DHT22;13508;50.734;4.232;2024-02-04T07:49:09;10.60;99.90
25652;DHT22;13508;50.734;4.232;2024-02-04T07:52:12;10.60;99.90
25652;DHT22;13508;50.734;4.232;2024-02-04T07:55:16;10.50;99.90
25652;DHT22;13508;50.734;4.232;2024-02-04T07:58:21;10.50;99.90
25652;DHT22;13508;50.734;4.232;2024-02-04T08:01:25;10.50;99.90
25652;DHT22;13508;50.734;4.232;2024-02-04T08:04:28;10.50;99.90
25652;DHT22;13508;50.734;4.232;2024-02-04T08:07:32;10.50;99.90
25652;DHT22;13508;50.734;4.232;2024-02-04T08:10:35;10.50;99.90
25652;DHT22;13508;50.734;4.232;2024-02-04T08:13:39;10.60;99.90
25652;DHT22;13508;50.734;4.232;2024-02-04T08:16:44;10.60;99.90
25652;DHT22;13508;50.734;4.232;2024-02-04T08:19:52;10.60;99.90
25652;DHT22;13508;50.734;4.232;2024-02-04T08:22:55;10.60;99.90
25652;DHT22;13508;50.734;4.232;2024-02-04T08:25:59;10.70;99.90
25652;DHT22;13508;50.734;4.232;2024-02-04T08:29:03;10.70;99.90
25652;DHT22;13508;50.734;4.232;2024-02-04T08:32:06;10.70;99.90
25652;DHT22;13508;50.734;4.232;2024-02-04T08:35:10;10.80;99.90
25652;DHT22;13508;50.734;4.232;2024-02-04T08:38:13;10.80;99.90
25652;DHT22;13508;50.734;4.232;2024-02-04T08:41:17;10.80;99.90
25652;DHT22;13508;50.734;4.232;2024-02-04T08:44:22;10.90;99.90
25652;DHT22;13508;50.734;4.232;2024-02-04T08:47:29;11.00;99.90
25652;DHT22;13508;50.734;4.232;2024-02-04T08:50:32;11.10;99.90
25652;DHT22;13508;50.734;4.232;2024-02-04T08:53:35;11.00;99.90
25652;DHT22;13508;50.734;4.232;2024-02-04T08:56:38;11.00;99.90
25652;DHT22;13508;50.734;4.232;2024-02-04T08:59:43;11.00;99.90
25652;DHT22;13508;50.734;4.232;2024-02-04T09:02:46;11.00;99.90
25652;DHT22;13508;50.734;4.232;2024-02-04T09:05:50;10.90;99.90
25652;DHT22;13508;50.734;4.232;2024-02-04T09:08:54;10.90;99.90
25652;DHT22;13508;50.734;4.232;2024-02-04T09:11:57;10.90;99.90
25652;DHT22;13508;50.734;4.232;2024-02-04T09:15:00;10.90;99.90
25652;DHT22;13508;50.734;4.232;2024-02-04T09:18:06;10.90;99.90
25652;DHT22;13508;50.734;4.232;2024-02-04T09:21:09;10.90;99.90
25652;DHT22;13508;50.734;4.232;2024-02-04T09:24:13;10.90;99.90
25652;DHT22;13508;50.734;4.232;2024-02-04T09:27:18;11.00;99.90
25652;DHT22;13508;50.734;4.232;2024-02-04T09:30:22;11.00;99.90
25652;DHT22;13508;50.734;4.232;2024-02-04T09:33:25;11.10;99.90
25652;DHT22;13508;50.734;4.232;2024-02-04T09:36:29;11.10;99.90
25652;DHT22;13508;50.734;4.232;2024-02-04T09:39:32;11.20;99.90
25652;DHT22;13508;50.734;4.232;2024-02-04T09:42:35;11.20;99.90
25652;DHT22;13508;50.734;4.232;2024-02-04T09:45:39;11.20;99.90
25652;DHT22;13508;50.734;4.232;2024-02-04T09:48:44;11.20;99.90
25652;DHT22;13508;50.734;4.232;2024-02-04T09:51:51;11.20;99.90
25652;DHT22;13508;50.734;4.232;2024-02-04T09:55:07;11.20;99.90
25652;DHT22;13508;50.734;4.232;2024-02-04T09:58:12;11.10;99.90
25652;DHT22;13508;50.734;4.232;2024-02-04T10:01:19;11.00;99.90
25652;DHT22;13508;50.734;4.232;2024-02-04T10:04:22;11.10;99.90
25652;DHT22;13508;50.734;4.232;2024-02-04T10:07:25;11.10;99.90
25652;DHT22;13508;50.734;4.232;2024-02-04T10:10:29;11.10;99.90
25652;DHT22;13508;50.734;4.232;2024-02-04T10:13:47;11.10;99.90
25652;DHT22;13508;50.734;4.232;2024-02-04T10:16:53;11.20;99.90
25652;DHT22;13508;50.734;4.232;2024-02-04T10:19:57;11.10;99.90
25652;DHT22;13508;50.734;4.232;2024-02-04T10:23:00;11.20;99.90
25652;DHT22;13508;50.734;4.232;2024-02-04T10:26:04;11.20;99.90
25652;DHT22;13508;50.734;4.232;2024-02-04T10:29:07;11.20;99.90
25652;DHT22;13508;50.734;4.232;2024-02-04T10:32:10;11.30;99.90
25652;DHT22;13508;50.734;4.232;2024-02-04T10:35:14;11.40;99.90
25652;DHT22;13508;50.734;4.232;2024-02-04T10:38:17;11.40;99.90
25652;DHT22;13508;50.734;4.232;2024-02-04T10:41:21;11.40;99.90
25652;DHT22;13508;50.734;4.232;2024-02-04T10:44:28;11.40;99.90
25652;DHT22;13508;50.734;4.232;2024-02-04T10:47:37;11.30;99.90
25652;DHT22;13508;50.734;4.232;2024-02-04T10:50:41;11.40;99.90
25652;DHT22;13508;50.734;4.232;2024-02-04T10:53:46;11.40;99.90
25652;DHT22;13508;50.734;4.232;2024-02-04T10:56:59;11.50;99.90
25652;DHT22;13508;50.734;4.232;2024-02-04T11:00:05;11.50;99.90
25652;DHT22;13508;50.734;4.232;2024-02-04T11:03:13;11.40;99.90
25652;DHT22;13508;50.734;4.232;2024-02-04T11:06:26;11.40;99.90
25652;DHT22;13508;50.734;4.232;2024-02-04T11:09:30;11.50;99.90
25652;DHT22;13508;50.734;4.232;2024-02-04T11:12:35;11.50;99.90
25652;DHT22;13508;50.734;4.232;2024-02-04T11:15:43;11.40;99.90
25652;DHT22;13508;50.734;4.232;2024-02-04T11:25:54;11.50;99.90
25652;DHT22;13508;50.734;4.232;2024-02-04T11:29:00;11.40;99.90
25652;DHT22;13508;50.734;4.232;2024-02-04T11:32:04;11.40;99.90
25652;DHT22;13508;50.734;4.232;2024-02-04T11:35:08;11.40;99.90
25652;DHT22;13508;50.734;4.232;2024-02-04T11:38:17;11.40;99.90
25652;DHT22;13508;50.734;4.232;2024-02-04T11:41:22;11.50;99.90
25652;DHT22;13508;50.734;4.232;2024-02-04T11:44:26;11.50;99.90
25652;DHT22;13508;50.734;4.232;2024-02-04T11:47:34;11.40;99.90
25652;DHT22;13508;50.734;4.232;2024-02-04T11:50:39;11.30;99.90
25652;DHT22;13508;50.734;4.232;2024-02-04T11:53:48;11.30;99.90
25652;DHT22;13508;50.734;4.232;2024-02-04T11:56:52;11.40;99.90
25652;DHT22;13508;50.734;4.232;2024-02-04T12:00:00;11.40;99.90
25652;DHT22;13508;50.734;4.232;2024-02-04T12:03:05;11.40;99.90
25652;DHT22;13508;50.734;4.232;2024-02-04T12:06:08;11.40;99.90
25652;DHT22;13508;50.734;4.232;2024-02-04T12:09:16;11.40;99.90
25652;DHT22;13508;50.734;4.232;2024-02-04T12:12:21;11.30;99.90
25652;DHT22;13508;50.734;4.232;2024-02-04T12:15:25;11.30;99.90
25652;DHT22;13508;50.734;4.232;2024-02-04T12:18:29;11.30;99.90
25652;DHT22;13508;50.734;4.232;2024-02-04T12:21:33;11.30;99.90
25652;DHT22;13508;50.734;4.232;2024-02-04T12:24:37;11.10;99.90
25652;DHT22;13508;50.734;4.232;2024-02-04T12:27:40;11.30;99.90
25652;DHT22;13508;50.734;4.232;2024-02-04T12:30:53;11.20;99.90
25652;DHT22;13508;50.734;4.232;2024-02-04T12:33:58;11.20;99.90
25652;DHT22;13508;50.734;4.232;2024-02-04T12:37:02;11.30;99.90
25652;DHT22;13508;50.734;4.232;2024-02-04T12:40:07;11.20;99.90
25652;DHT22;13508;50.734;4.232;2024-02-04T12:43:11;11.20;99.90
25652;DHT22;13508;50.734;4.232;2024-02-04T12:46:14;11.10;99.90
25652;DHT22;13508;50.734;4.232;2024-02-04T12:49:19;11.00;99.90
25652;DHT22;13508;50.734;4.232;2024-02-04T12:52:25;11.10;99.90
25652;DHT22;13508;50.734;4.232;2024-02-04T12:55:29;11.10;99.90
25652;DHT22;13508;50.734;4.232;2024-02-04T12:58:42;11.00;99.90
25652;DHT22;13508;50.734;4.232;2024-02-04T13:01:46;11.00;99.90
25652;DHT22;13508;50.734;4.232;2024-02-04T13:04:49;11.00;99.90
25652;DHT22;13508;50.734;4.232;2024-02-04T13:07:58;11.00;99.90
25652;DHT22;13508;50.734;4.232;2024-02-04T13:11:02;11.00;99.90
25652;DHT22;13508;50.734;4.232;2024-02-04T13:14:05;11.10;99.90
25652;DHT22;13508;50.734;4.232;2024-02-04T13:17:09;11.10;99.90
25652;DHT22;13508;50.734;4.232;2024-02-04T13:20:12;11.10;99.90
25652;DHT22;13508;50.734;4.232;2024-02-04T13:23:16;11.10;99.90
25652;DHT22;13508;50.734;4.232;2024-02-04T13:26:19;11.10;99.90
25652;DHT22;13508;50.734;4.232;2024-02-04T13:29:25;11.20;99.90
25652;DHT22;13508;50.734;4.232;2024-02-04T13:32:29;11.10;99.90
25652;DHT22;13508;50.734;4.232;2024-02-04T13:35:34;11.10;99.90
25652;DHT22;13508;50.734;4.232;2024-02-04T13:38:38;11.00;99.90
25652;DHT22;13508;50.734;4.232;2024-02-04T13:41:41;11.00;99.90
25652;DHT22;13508;50.734;4.232;2024-02-04T13:44:44;11.10;99.90
25652;DHT22;13508;50.734;4.232;2024-02-04T13:47:48;11.10;99.90
25652;DHT22;13508;50.734;4.232;2024-02-04T13:50:51;11.20;99.90
25652;DHT22;13508;50.734;4.232;2024-02-04T13:53:57;11.10;99.90
25652;DHT22;13508;50.734;4.232;2024-02-04T13:57:00;11.00;99.90
25652;DHT22;13508;50.734;4.232;2024-02-04T14:00:06;10.90;99.90
25652;DHT22;13508;50.734;4.232;2024-02-04T14:03:11;10.90;99.90
25652;DHT22;13508;50.734;4.232;2024-02-04T14:06:16;11.00;99.90
25652;DHT22;13508;50.734;4.232;2024-02-04T14:09:19;11.00;99.90
25652;DHT22;13508;50.734;4.232;2024-02-04T14:12:22;10.90;99.90
25652;DHT22;13508;50.734;4.232;2024-02-04T14:15:26;11.00;99.90
25652;DHT22;13508;50.734;4.232;2024-02-04T14:18:30;11.00;99.90
25652;DHT22;13508;50.734;4.232;2024-02-04T14:21:33;11.10;99.90
25652;DHT22;13508;50.734;4.232;2024-02-04T14:24:39;11.10;99.90
25652;DHT22;13508;50.734;4.232;2024-02-04T14:27:43;11.10;99.90
25652;DHT22;13508;50.734;4.232;2024-02-04T14:30:46;11.10;99.90
25652;DHT22;13508;50.734;4.232;2024-02-04T14:33:50;11.20;99.90
25652;DHT22;13508;50.734;4.232;2024-02-04T14:36:53;11.20;99.90
25652;DHT22;13508;50.734;4.232;2024-02-04T14:39:57;11.10;99.90
25652;DHT22;13508;50.734;4.232;2024-02-04T14:43:00;11.10;99.90
25652;DHT22;13508;50.734;4.232;2024-02-04T14:46:05;11.00;99.90
25652;DHT22;13508;50.734;4.232;2024-02-04T14:49:09;11.10;99.90
25652;DHT22;13508;50.734;4.232;2024-02-04T14:52:14;11.20;99.90
25652;DHT22;13508;50.734;4.232;2024-02-04T14:55:20;11.20;99.90
25652;DHT22;13508;50.734;4.232;2024-02-04T14:58:24;11.10;99.90
25652;DHT22;13508;50.734;4.232;2024-02-04T15:01:27;11.10;99.90
25652;DHT22;13508;50.734;4.232;2024-02-04T15:04:31;11.00;99.90
25652;DHT22;13508;50.734;4.232;2024-02-04T15:07:35;11.00;99.90
25652;DHT22;13508;50.734;4.232;2024-02-04T15:10:38;11.10;99.90
25652;DHT22;13508;50.734;4.232;2024-02-04T15:13:45;11.10;99.90
25652;DHT22;13508;50.734;4.232;2024-02-04T15:16:51;11.10;99.90
25652;DHT22;13508;50.734;4.232;2024-02-04T15:19:54;11.20;99.90
25652;DHT22;13508;50.734;4.232;2024-02-04T15:22:57;11.10;99.90
25652;DHT22;13508;50.734;4.232;2024-02-04T15:26:10;11.20;99.90
25652;DHT22;13508;50.734;4.232;2024-02-04T15:29:14;11.20;99.90
25652;DHT22;13508;50.734;4.232;2024-02-04T15:32:19;11.20;99.90
25652;DHT22;13508;50.734;4.232;2024-02-04T15:35:23;11.20;99.90
25652;DHT22;13508;50.734;4.232;2024-02-04T15:38:26;11.20;99.90
25652;DHT22;13508;50.734;4.232;2024-02-04T15:41:31;11.10;99.90
25652;DHT22;13508;50.734;4.232;2024-02-04T15:44:35;11.10;99.90
25652;DHT22;13508;50.734;4.232;2024-02-04T15:47:48;11.10;99.90
25652;DHT22;13508;50.734;4.232;2024-02-04T15:50:52;11.10;99.90
25652;DHT22;13508;50.734;4.232;2024-02-04T15:53:56;11.20;99.90
25652;DHT22;13508;50.734;4.232;2024-02-04T15:57:06;11.20;99.90
25652;DHT22;13508;50.734;4.232;2024-02-04T16:00:10;11.20;99.90
25652;DHT22;13508;50.734;4.232;2024-02-04T16:03:21;11.20;99.90
25652;DHT22;13508;50.734;4.232;2024-02-04T16:06:24;11.20;99.90
25652;DHT22;13508;50.734;4.232;2024-02-04T16:09:28;11.20;99.90
25652;DHT22;13508;50.734;4.232;2024-02-04T16:12:33;11.10;99.90
25652;DHT22;13508;50.734;4.232;2024-02-04T16:15:39;11.10;99.90
25652;DHT22;13508;50.734;4.232;2024-02-04T16:18:48;11.10;99.90
25652;DHT22;13508;50.734;4.232;2024-02-04T16:21:51;11.10;99.90
25652;DHT22;13508;50.734;4.232;2024-02-04T16:24:57;11.10;99.90
25652;DHT22;13508;50.734;4.232;2024-02-04T16:28:00;11.20;99.90
25652;DHT22;13508;50.734;4.232;2024-02-04T16:31:04;11.20;99.90
25652;DHT22;13508;50.734;4.232;2024-02-04T16:34:07;11.10;99.90
25652;DHT22;13508;50.734;4.232;2024-02-04T16:37:11;11.20;99.90
25652;DHT22;13508;50.734;4.232;2024-02-04T16:40:15;11.20;99.90
25652;DHT22;13508;50.734;4.232;2024-02-04T16:43:18;11.10;99.90
25652;DHT22;13508;50.734;4.232;2024-02-04T16:46:24;11.10;99.90
25652;DHT22;13508;50.734;4.232;2024-02-04T16:49:28;11.10;99.90
25652;DHT22;13508;50.734;4.232;2024-02-04T16:52:32;11.20;99.90
25652;DHT22;13508;50.734;4.232;2024-02-04T16:55:36;11.10;99.90
25652;DHT22;13508;50.734;4.232;2024-02-04T16:58:39;11.10;99.90
25652;DHT22;13508;50.734;4.232;2024-02-04T17:01:43;11.10;99.90
25652;DHT22;13508;50.734;4.232;2024-02-04T17:04:47;11.10;99.90
25652;DHT22;13508;50.734;4.232;2024-02-04T17:07:55;11.00;99.90
25652;DHT22;13508;50.734;4.232;2024-02-04T17:10:58;11.00;99.90
25652;DHT22;13508;50.734;4.232;2024-02-04T17:14:02;10.90;99.90
25652;DHT22;13508;50.734;4.232;2024-02-04T17:17:13;10.90;99.90
25652;DHT22;13508;50.734;4.232;2024-02-04T17:20:22;10.90;99.90
25652;DHT22;13508;50.734;4.232;2024-02-04T17:23:32;10.90;99.90
25652;DHT22;13508;50.734;4.232;2024-02-04T17:26:40;11.00;99.90
25652;DHT22;13508;50.734;4.232;2024-02-04T17:29:44;10.90;99.90
25652;DHT22;13508;50.734;4.232;2024-02-04T17:32:48;10.90;99.90
25652;DHT22;13508;50.734;4.232;2024-02-04T17:35:55;11.00;99.90
25652;DHT22;13508;50.734;4.232;2024-02-04T17:38:59;10.90;99.90
25652;DHT22;13508;50.734;4.232;2024-02-04T17:42:04;10.90;99.90
25652;DHT22;13508;50.734;4.232;2024-02-04T17:45:09;11.00;99.90
25652;DHT22;13508;50.734;4.232;2024-02-04T17:48:15;11.00;99.90
25652;DHT22;13508;50.734;4.232;2024-02-04T17:51:18;10.90;99.90
25652;DHT22;13508;50.734;4.232;2024-02-04T17:54:22;10.90;99.90
25652;DHT22;13508;50.734;4.232;2024-02-04T17:57:26;10.90;99.90
25652;DHT22;13508;50.734;4.232;2024-02-04T18:00:30;10.90;99.90
25652;DHT22;13508;50.734;4.232;2024-02-04T18:03:34;10.90;99.90
25652;DHT22;13508;50.734;4.232;2024-02-04T18:06:38;10.90;99.90
25652;DHT22;13508;50.734;4.232;2024-02-04T18:09:42;10.90;99.90
25652;DHT22;13508;50.734;4.232;2024-02-04T18:12:46;10.90;99.90
25652;DHT22;13508;50.734;4.232;2024-02-04T18:15:49;11.00;99.90
25652;DHT22;13508;50.734;4.232;2024-02-04T18:18:56;11.00;99.90
25652;DHT22;13508;50.734;4.232;2024-02-04T18:22:03;11.00;99.90
25652;DHT22;13508;50.734;4.232;2024-02-04T18:25:09;11.10;99.90
25652;DHT22;13508;50.734;4.232;2024-02-04T18:28:15;11.10;99.90
25652;DHT22;13508;50.734;4.232;2024-02-04T18:31:20;11.10;99.90
25652;DHT22;13508;50.734;4.232;2024-02-04T18:34:23;11.00;99.90
25652;DHT22;13508;50.734;4.232;2024-02-04T18:37:27;10.90;99.90
25652;DHT22;13508;50.734;4.232;2024-02-04T18:40:30;11.00;99.90
25652;DHT22;13508;50.734;4.232;2024-02-04T18:43:34;10.90;99.90
25652;DHT22;13508;50.734;4.232;2024-02-04T18:46:38;11.00;99.90
25652;DHT22;13508;50.734;4.232;2024-02-04T18:49:44;11.00;99.90
25652;DHT22;13508;50.734;4.232;2024-02-04T18:52:49;10.90;99.90
25652;DHT22;13508;50.734;4.232;2024-02-04T18:55:53;11.00;99.90
25652;DHT22;13508;50.734;4.232;2024-02-04T18:58:56;10.90;99.90
25652;DHT22;13508;50.734;4.232;2024-02-04T19:02:00;10.90;99.90
25652;DHT22;13508;50.734;4.232;2024-02-04T19:05:05;10.90;99.90
25652;DHT22;13508;50.734;4.232;2024-02-04T19:08:09;10.80;99.90
25652;DHT22;13508;50.734;4.232;2024-02-04T19:11:13;10.80;99.90
25652;DHT22;13508;50.734;4.232;2024-02-04T19:14:16;10.80;99.90
25652;DHT22;13508;50.734;4.232;2024-02-04T19:17:23;10.70;99.90
25652;DHT22;13508;50.734;4.232;2024-02-04T19:20:26;10.80;99.90
25652;DHT22;13508;50.734;4.232;2024-02-04T19:23:30;10.70;99.90
25652;DHT22;13508;50.734;4.232;2024-02-04T19:26:33;10.80;99.90
25652;DHT22;13508;50.734;4.232;2024-02-04T19:29:37;10.70;99.90
25652;DHT22;13508;50.734;4.232;2024-02-04T19:32:44;10.70;99.90